createdAt,value
2018-02-20T00:00:28.534Z,1013.98
2018-02-20T00:01:28.484Z,1014.00
2018-02-20T00:02:28.441Z,1013.99
2018-02-20T00:03:28.380Z,1013.98
2018-02-20T00:04:28.335Z,1013.95
2018-02-20T00:05:28.284Z,1014.00
2018-02-20T00:06:28.248Z,1013.97
2018-02-20T00:07:28.256Z,1013.94
2018-02-20T00:08:28.130Z,1013.88
2018-02-20T00:09:28.081Z,1013.89
2018-02-20T00:10:28.033Z,1013.89
2018-02-20T00:11:27.987Z,1013.91
2018-02-20T00:13:27.881Z,1013.88
2018-02-20T00:14:27.835Z,1013.84
2018-02-20T00:15:27.782Z,1013.84
2018-02-20T00:16:27.731Z,1013.81
2018-02-20T00:17:27.683Z,1013.78
2018-02-20T00:18:27.643Z,1013.78
2018-02-20T00:19:27.578Z,1013.75
2018-02-20T00:20:27.531Z,1013.74
2018-02-20T00:21:27.545Z,1013.74
2018-02-20T00:22:27.428Z,1013.72
2018-02-20T00:23:27.451Z,1013.69
2018-02-20T00:24:27.330Z,1013.70
2018-02-20T00:25:27.283Z,1013.73
2018-02-20T00:26:27.230Z,1013.70
2018-02-20T00:27:27.178Z,1013.72
2018-02-20T00:28:27.128Z,1013.69
2018-02-20T00:29:27.085Z,1013.72
2018-02-20T00:30:27.028Z,1013.72
2018-02-20T00:31:26.976Z,1013.69
2018-02-20T00:32:26.931Z,1013.74
2018-02-20T00:33:26.876Z,1013.68
2018-02-20T00:34:26.824Z,1013.70
2018-02-20T00:35:26.782Z,1013.64
2018-02-20T00:36:26.726Z,1013.65
2018-02-20T00:37:26.676Z,1013.65
2018-02-20T00:38:26.624Z,1013.63
2018-02-20T00:39:26.578Z,1013.65
2018-02-20T00:40:26.521Z,1013.68
2018-02-20T00:41:26.476Z,1013.65
2018-02-20T00:42:26.425Z,1013.65
2018-02-20T00:43:26.376Z,1013.65
2018-02-20T00:44:26.322Z,1013.64
2018-02-20T00:45:26.273Z,1013.64
2018-02-20T00:46:26.223Z,1013.59
2018-02-20T00:47:26.173Z,1013.58
2018-02-20T00:48:26.123Z,1013.61
2018-02-20T00:49:26.075Z,1013.61
2018-02-20T00:50:26.021Z,1013.57
2018-02-20T00:51:25.972Z,1013.55
2018-02-20T00:52:25.921Z,1013.54
2018-02-20T00:53:25.868Z,1013.56
2018-02-20T00:54:25.819Z,1013.49
2018-02-20T00:55:25.769Z,1013.43
2018-02-20T00:56:25.720Z,1013.48
2018-02-20T00:57:25.669Z,1013.42
2018-02-20T00:58:25.617Z,1013.37
2018-02-20T00:59:25.568Z,1013.36
2018-02-20T01:00:25.521Z,1013.37
2018-02-20T01:01:25.467Z,1013.40
2018-02-20T01:02:25.417Z,1013.46
2018-02-20T01:03:25.366Z,1013.46
2018-02-20T01:04:25.316Z,1013.50
2018-02-20T01:05:25.267Z,1013.49
2018-02-20T01:06:25.217Z,1013.48
2018-02-20T01:07:25.164Z,1013.49
2018-02-20T01:08:25.114Z,1013.45
2018-02-20T01:09:25.068Z,1013.48
2018-02-20T01:10:25.012Z,1013.47
2018-02-20T01:11:24.970Z,1013.49
2018-02-20T01:12:24.911Z,1013.52
2018-02-20T01:13:24.861Z,1013.49
2018-02-20T01:14:24.811Z,1013.50
2018-02-20T01:15:24.765Z,1013.47
2018-02-20T01:16:24.712Z,1013.51
2018-02-20T01:17:24.661Z,1013.51
2018-02-20T01:18:24.608Z,1013.52
2018-02-20T01:19:24.559Z,1013.51
2018-02-20T01:20:24.508Z,1013.51
2018-02-20T01:21:24.457Z,1013.56
2018-02-20T01:22:24.407Z,1013.57
2018-02-20T01:23:24.358Z,1013.57
2018-02-20T01:24:24.306Z,1013.61
2018-02-20T01:25:24.254Z,1013.59
2018-02-20T01:26:24.205Z,1013.60
2018-02-20T01:27:24.153Z,1013.61
2018-02-20T01:28:24.111Z,1013.64
2018-02-20T01:29:24.053Z,1013.61
2018-02-20T01:30:24.004Z,1013.65
2018-02-20T01:31:23.952Z,1013.67
2018-02-20T01:32:23.899Z,1013.65
2018-02-20T01:33:23.851Z,1013.68
2018-02-20T01:34:23.800Z,1013.68
2018-02-20T01:35:23.750Z,1013.73
2018-02-20T01:36:23.700Z,1013.72
2018-02-20T01:37:23.648Z,1013.71
2018-02-20T01:38:23.593Z,1013.71
2018-02-20T01:39:23.545Z,1013.73
2018-02-20T01:40:23.493Z,1013.69
2018-02-20T01:41:23.446Z,1013.70
2018-02-20T01:42:23.398Z,1013.70
2018-02-20T01:43:23.346Z,1013.69
2018-02-20T01:44:23.296Z,1013.70
2018-02-20T01:45:23.244Z,1013.70
2018-02-20T01:46:23.193Z,1013.74
2018-02-20T01:47:23.144Z,1013.69
2018-02-20T01:48:23.095Z,1013.72
2018-02-20T01:49:23.041Z,1013.71
2018-02-20T01:50:22.988Z,1013.68
2018-02-20T01:51:22.936Z,1013.69
2018-02-20T01:52:22.890Z,1013.70
2018-02-20T01:53:22.838Z,1013.75
2018-02-20T01:54:22.789Z,1013.76
2018-02-20T01:55:22.737Z,1013.73
2018-02-20T01:56:22.689Z,1013.76
2018-02-20T01:57:22.636Z,1013.78
2018-02-20T01:58:22.582Z,1013.71
2018-02-20T01:59:22.533Z,1013.78
2018-02-20T02:00:22.485Z,1013.74
2018-02-20T02:01:22.454Z,1013.72
2018-02-20T02:02:22.391Z,1013.72
2018-02-20T02:03:22.334Z,1013.69
2018-02-20T02:04:22.283Z,1013.71
2018-02-20T02:05:22.229Z,1013.71
2018-02-20T02:06:22.182Z,1013.69
2018-02-20T02:07:22.127Z,1013.71
2018-02-20T02:08:22.083Z,1013.73
2018-02-20T02:09:22.025Z,1013.70
2018-02-20T02:10:21.976Z,1013.76
2018-02-20T02:11:21.927Z,1013.72
2018-02-20T02:12:21.876Z,1013.74
2018-02-20T02:13:21.824Z,1013.73
2018-02-20T02:14:21.773Z,1013.76
2018-02-20T02:15:21.722Z,1013.72
2018-02-20T02:16:21.672Z,1013.76
2018-02-20T02:17:21.621Z,1013.77
2018-02-20T02:18:21.569Z,1013.77
2018-02-20T02:19:21.519Z,1013.80
2018-02-20T02:20:21.470Z,1013.78
2018-02-20T02:21:21.417Z,1013.82
2018-02-20T02:22:21.368Z,1013.78
2018-02-20T02:23:21.316Z,1013.81
2018-02-20T02:24:21.266Z,1013.77
2018-02-20T02:25:21.216Z,1013.80
2018-02-20T02:26:21.162Z,1013.81
2018-02-20T02:27:21.114Z,1013.84
2018-02-20T02:28:21.062Z,1013.80
2018-02-20T02:29:21.014Z,1013.81
2018-02-20T02:30:20.962Z,1013.80
2018-02-20T02:31:20.911Z,1013.79
2018-02-20T02:32:20.866Z,1013.83
2018-02-20T02:33:20.810Z,1013.80
2018-02-20T02:34:20.803Z,1013.80
2018-02-20T02:35:20.704Z,1013.80
2018-02-20T02:36:20.667Z,1013.77
2018-02-20T02:37:20.607Z,1013.80
2018-02-20T02:38:20.550Z,1013.80
2018-02-20T02:39:20.510Z,1013.81
2018-02-20T02:40:20.456Z,1013.77
2018-02-20T02:41:20.406Z,1013.79
2018-02-20T02:42:20.348Z,1013.77
2018-02-20T02:43:20.303Z,1013.79
2018-02-20T02:44:20.251Z,1013.79
2018-02-20T02:45:20.201Z,1013.83
2018-02-20T02:46:20.145Z,1013.85
2018-02-20T02:47:20.101Z,1013.82
2018-02-20T02:48:20.047Z,1013.85
2018-02-20T02:49:19.998Z,1013.82
2018-02-20T02:50:19.940Z,1013.79
2018-02-20T02:51:19.892Z,1013.85
2018-02-20T02:52:19.843Z,1013.82
2018-02-20T02:53:19.789Z,1013.81
2018-02-20T02:54:19.751Z,1013.86
2018-02-20T02:55:19.695Z,1013.83
2018-02-20T02:56:19.636Z,1013.81
2018-02-20T02:57:19.588Z,1013.83
2018-02-20T02:58:19.539Z,1013.79
2018-02-20T02:59:20.145Z,1013.82
2018-02-20T03:00:19.439Z,1013.81
2018-02-20T03:01:19.391Z,1013.76
2018-02-20T03:02:19.336Z,1013.78
2018-02-20T03:03:19.285Z,1013.79
2018-02-20T03:04:19.230Z,1013.80
2018-02-20T03:05:19.183Z,1013.80
2018-02-20T03:06:19.130Z,1013.84
2018-02-20T03:07:19.079Z,1013.84
2018-02-20T03:08:19.031Z,1013.90
2018-02-20T03:09:18.981Z,1013.85
2018-02-20T03:10:18.923Z,1013.91
2018-02-20T03:11:18.882Z,1013.90
2018-02-20T03:12:18.830Z,1013.93
2018-02-20T03:13:18.773Z,1013.92
2018-02-20T03:14:18.727Z,1013.94
2018-02-20T03:15:18.673Z,1013.97
2018-02-20T03:16:18.624Z,1013.97
2018-02-20T03:17:18.575Z,1013.94
2018-02-20T03:18:18.522Z,1013.95
2018-02-20T03:19:18.467Z,1013.99
2018-02-20T03:20:18.425Z,1014.01
2018-02-20T03:21:18.369Z,1013.98
2018-02-20T03:22:18.316Z,1013.93
2018-02-20T03:23:18.268Z,1013.92
2018-02-20T03:24:18.216Z,1013.88
2018-02-20T03:25:18.163Z,1013.91
2018-02-20T03:26:18.115Z,1013.87
2018-02-20T03:27:18.065Z,1013.86
2018-02-20T03:28:18.014Z,1013.85
2018-02-20T03:29:17.965Z,1013.84
2018-02-20T03:30:17.911Z,1013.87
2018-02-20T03:31:17.859Z,1013.84
2018-02-20T03:32:17.809Z,1013.81
2018-02-20T03:33:17.759Z,1013.80
2018-02-20T03:34:17.708Z,1013.82
2018-02-20T03:35:17.656Z,1013.81
2018-02-20T03:36:17.603Z,1013.81
2018-02-20T03:37:17.552Z,1013.83
2018-02-20T03:38:17.499Z,1013.84
2018-02-20T03:39:17.454Z,1013.85
2018-02-20T03:40:17.401Z,1013.85
2018-02-20T03:41:17.351Z,1013.84
2018-02-20T03:42:17.299Z,1013.88
2018-02-20T03:43:17.248Z,1013.86
2018-02-20T03:44:17.197Z,1013.85
2018-02-20T03:45:17.145Z,1013.87
2018-02-20T03:46:17.102Z,1013.82
2018-02-20T03:47:17.049Z,1013.79
2018-02-20T03:48:16.992Z,1013.81
2018-02-20T03:49:16.952Z,1013.75
2018-02-20T03:50:16.888Z,1013.80
2018-02-20T03:51:16.840Z,1013.77
2018-02-20T03:52:16.786Z,1013.74
2018-02-20T03:53:16.738Z,1013.79
2018-02-20T03:54:16.688Z,1013.78
2018-02-20T03:55:16.636Z,1013.83
2018-02-20T03:56:16.587Z,1013.86
2018-02-20T03:57:16.535Z,1013.85
2018-02-20T03:58:16.481Z,1013.88
2018-02-20T03:59:16.432Z,1013.86
2018-02-20T04:00:16.379Z,1013.90
2018-02-20T04:01:16.331Z,1013.93
2018-02-20T04:02:16.277Z,1013.93
2018-02-20T04:03:16.227Z,1013.94
2018-02-20T04:04:16.179Z,1014.01
2018-02-20T04:05:16.126Z,1013.99
2018-02-20T04:06:16.075Z,1013.96
2018-02-20T04:07:16.022Z,1014.00
2018-02-20T04:08:15.971Z,1014.01
2018-02-20T04:09:15.923Z,1014.01
2018-02-20T04:10:15.871Z,1014.00
2018-02-20T04:11:15.820Z,1014.01
2018-02-20T04:12:15.766Z,1014.00
2018-02-20T04:13:15.717Z,1013.95
2018-02-20T04:14:15.665Z,1013.96
2018-02-20T04:15:15.620Z,1013.99
2018-02-20T04:16:15.565Z,1013.98
2018-02-20T04:17:15.513Z,1014.00
2018-02-20T04:18:15.468Z,1013.98
2018-02-20T04:19:15.412Z,1013.98
2018-02-20T04:20:15.359Z,1013.97
2018-02-20T04:21:15.312Z,1013.99
2018-02-20T04:22:15.254Z,1014.01
2018-02-20T04:23:15.205Z,1013.99
2018-02-20T04:24:15.157Z,1013.97
2018-02-20T04:25:15.102Z,1014.01
2018-02-20T04:26:15.055Z,1014.03
2018-02-20T04:27:14.998Z,1013.98
2018-02-20T04:28:14.952Z,1014.00
2018-02-20T04:29:14.897Z,1013.97
2018-02-20T04:30:14.849Z,1014.00
2018-02-20T04:31:14.797Z,1014.00
2018-02-20T04:32:14.745Z,1014.04
2018-02-20T04:33:14.696Z,1014.06
2018-02-20T04:34:14.639Z,1014.07
2018-02-20T04:35:14.591Z,1014.09
2018-02-20T04:36:14.538Z,1014.12
2018-02-20T04:37:14.490Z,1014.11
2018-02-20T04:38:14.437Z,1014.13
2018-02-20T04:39:14.384Z,1014.15
2018-02-20T04:40:14.334Z,1014.15
2018-02-20T04:41:14.280Z,1014.14
2018-02-20T04:42:14.234Z,1014.20
2018-02-20T04:43:14.178Z,1014.17
2018-02-20T04:44:14.127Z,1014.20
2018-02-20T04:45:14.076Z,1014.19
2018-02-20T04:46:14.030Z,1014.18
2018-02-20T04:47:13.973Z,1014.19
2018-02-20T04:48:13.923Z,1014.19
2018-02-20T04:49:13.873Z,1014.18
2018-02-20T04:50:13.820Z,1014.17
2018-02-20T04:51:13.771Z,1014.15
2018-02-20T04:52:13.717Z,1014.12
2018-02-20T04:53:13.670Z,1014.07
2018-02-20T04:54:13.667Z,1014.09
2018-02-20T04:55:13.568Z,1014.08
2018-02-20T04:56:13.517Z,1014.08
2018-02-20T04:57:13.461Z,1014.10
2018-02-20T04:58:13.407Z,1014.11
2018-02-20T04:59:13.359Z,1014.13
2018-02-20T05:00:13.310Z,1014.11
2018-02-20T05:01:13.254Z,1014.10
2018-02-20T05:02:13.202Z,1014.10
2018-02-20T05:03:13.152Z,1014.13
2018-02-20T05:04:13.098Z,1014.10
2018-02-20T05:05:13.050Z,1014.12
2018-02-20T05:06:12.999Z,1014.06
2018-02-20T05:07:12.944Z,1014.08
2018-02-20T05:08:12.897Z,1014.07
2018-02-20T05:09:12.845Z,1014.09
2018-02-20T05:10:12.790Z,1014.09
2018-02-20T05:11:12.751Z,1014.08
2018-02-20T05:12:12.706Z,1014.04
2018-02-20T05:13:12.643Z,1014.10
2018-02-20T05:14:12.588Z,1014.16
2018-02-20T05:15:12.535Z,1014.17
2018-02-20T05:16:12.484Z,1014.18
2018-02-20T05:17:12.440Z,1014.19
2018-02-20T05:18:12.381Z,1014.15
2018-02-20T05:19:12.331Z,1014.19
2018-02-20T05:20:12.279Z,1014.15
2018-02-20T05:21:12.227Z,1014.18
2018-02-20T05:22:12.188Z,1014.13
2018-02-20T05:23:12.124Z,1014.12
2018-02-20T05:24:12.072Z,1014.17
2018-02-20T05:25:12.026Z,1014.09
2018-02-20T05:26:11.972Z,1014.10
2018-02-20T05:27:11.917Z,1014.11
2018-02-20T05:28:11.868Z,1014.08
2018-02-20T05:29:11.815Z,1014.10
2018-02-20T05:30:11.762Z,1014.07
2018-02-20T05:31:11.712Z,1014.08
2018-02-20T05:32:11.661Z,1014.10
2018-02-20T05:33:11.611Z,1014.06
2018-02-20T05:34:11.555Z,1014.14
2018-02-20T05:35:11.511Z,1014.07
2018-02-20T05:36:11.457Z,1014.05
2018-02-20T05:37:11.409Z,1014.09
2018-02-20T05:38:11.353Z,1014.10
2018-02-20T05:39:11.299Z,1014.10
2018-02-20T05:40:11.249Z,1014.13
2018-02-20T05:41:11.202Z,1014.12
2018-02-20T05:42:11.149Z,1014.14
2018-02-20T05:43:11.106Z,1014.14
2018-02-20T05:44:11.043Z,1014.14
2018-02-20T05:45:10.996Z,1014.17
2018-02-20T05:46:10.939Z,1014.18
2018-02-20T05:47:10.891Z,1014.17
2018-02-20T05:48:10.836Z,1014.16
2018-02-20T05:49:10.789Z,1014.17
2018-02-20T05:50:10.734Z,1014.19
2018-02-20T05:51:10.683Z,1014.23
2018-02-20T05:52:10.628Z,1014.24
2018-02-20T05:53:10.583Z,1014.25
2018-02-20T05:54:10.527Z,1014.26
2018-02-20T05:55:10.474Z,1014.29
2018-02-20T05:56:10.423Z,1014.28
2018-02-20T05:57:10.373Z,1014.27
2018-02-20T05:58:10.325Z,1014.31
2018-02-20T05:59:10.269Z,1014.30
2018-02-20T06:00:10.217Z,1014.32
2018-02-20T06:01:10.165Z,1014.32
2018-02-20T06:02:10.114Z,1014.32
2018-02-20T06:03:10.060Z,1014.31
2018-02-20T06:04:10.009Z,1014.31
2018-02-20T06:05:09.961Z,1014.35
2018-02-20T06:06:09.906Z,1014.36
2018-02-20T06:07:09.860Z,1014.34
2018-02-20T06:08:09.805Z,1014.37
2018-02-20T06:09:09.755Z,1014.40
2018-02-20T06:10:09.704Z,1014.29
2018-02-20T06:11:09.688Z,1014.39
2018-02-20T06:12:09.599Z,1014.38
2018-02-20T06:13:09.552Z,1014.37
2018-02-20T06:14:09.496Z,1014.37
2018-02-20T06:15:09.446Z,1014.37
2018-02-20T06:16:09.392Z,1014.34
2018-02-20T06:17:09.340Z,1014.30
2018-02-20T06:18:09.291Z,1014.33
2018-02-20T06:19:09.238Z,1014.29
2018-02-20T06:20:09.186Z,1014.30
2018-02-20T06:21:09.182Z,1014.30
2018-02-20T06:22:09.087Z,1014.27
2018-02-20T06:23:09.047Z,1014.28
2018-02-20T06:24:08.985Z,1014.23
2018-02-20T06:25:08.926Z,1014.27
2018-02-20T06:26:08.875Z,1014.25
2018-02-20T06:27:08.832Z,1014.22
2018-02-20T06:28:08.773Z,1014.24
2018-02-20T06:29:08.722Z,1014.23
2018-02-20T06:30:08.670Z,1014.25
2018-02-20T06:31:08.659Z,1014.24
2018-02-20T06:32:08.565Z,1014.21
2018-02-20T06:33:08.518Z,1014.18
2018-02-20T06:34:08.466Z,1014.22
2018-02-20T06:35:08.410Z,1014.24
2018-02-20T06:36:08.358Z,1014.23
2018-02-20T06:37:08.307Z,1014.23
2018-02-20T06:38:08.258Z,1014.26
2018-02-20T06:39:08.224Z,1014.29
2018-02-20T06:40:08.154Z,1014.29
2018-02-20T06:41:08.103Z,1014.29
2018-02-20T06:42:08.050Z,1014.28
2018-02-20T06:43:07.997Z,1014.27
2018-02-20T06:44:07.947Z,1014.26
2018-02-20T06:45:07.904Z,1014.27
2018-02-20T06:46:07.841Z,1014.28
2018-02-20T06:47:07.794Z,1014.28
2018-02-20T06:48:07.742Z,1014.32
2018-02-20T06:49:07.690Z,1014.31
2018-02-20T06:50:07.636Z,1014.31
2018-02-20T06:51:07.586Z,1014.33
2018-02-20T06:52:07.538Z,1014.35
2018-02-20T06:53:07.482Z,1014.36
2018-02-20T06:54:07.430Z,1014.31
2018-02-20T06:55:07.378Z,1014.36
2018-02-20T06:56:07.332Z,1014.32
2018-02-20T06:57:07.283Z,1014.33
2018-02-20T06:58:07.225Z,1014.36
2018-02-20T06:59:07.174Z,1014.36
2018-02-20T07:00:07.119Z,1014.37
2018-02-20T07:01:07.072Z,1014.37
2018-02-20T07:02:07.019Z,1014.35
2018-02-20T07:03:06.968Z,1014.38
2018-02-20T07:04:06.915Z,1014.38
2018-02-20T07:05:06.875Z,1014.45
2018-02-20T07:06:06.815Z,1014.41
2018-02-20T07:07:06.764Z,1014.45
2018-02-20T07:08:06.708Z,1014.48
2018-02-20T07:09:06.657Z,1014.42
2018-02-20T07:10:06.608Z,1014.44
2018-02-20T07:11:06.553Z,1014.44
2018-02-20T07:12:06.552Z,1014.44
2018-02-20T07:13:06.452Z,1014.45
2018-02-20T07:14:06.402Z,1014.44
2018-02-20T07:15:06.353Z,1014.48
2018-02-20T07:16:06.298Z,1014.48
2018-02-20T07:17:06.249Z,1014.50
2018-02-20T07:18:06.195Z,1014.50
2018-02-20T07:19:06.162Z,1014.53
2018-02-20T07:20:06.098Z,1014.54
2018-02-20T07:21:06.040Z,1014.54
2018-02-20T07:22:05.992Z,1014.56
2018-02-20T07:23:05.942Z,1014.58
2018-02-20T07:24:05.885Z,1014.56
2018-02-20T07:25:05.835Z,1014.55
2018-02-20T07:26:05.788Z,1014.58
2018-02-20T07:27:05.737Z,1014.61
2018-02-20T07:28:05.680Z,1014.64
2018-02-20T07:29:05.631Z,1014.64
2018-02-20T07:30:05.583Z,1014.62
2018-02-20T07:31:05.532Z,1014.71
2018-02-20T07:32:05.479Z,1014.69
2018-02-20T07:33:05.427Z,1014.73
2018-02-20T07:34:05.372Z,1014.77
2018-02-20T07:35:05.323Z,1014.74
2018-02-20T07:36:05.275Z,1014.78
2018-02-20T07:37:05.220Z,1014.79
2018-02-20T07:38:05.171Z,1014.77
2018-02-20T07:39:05.117Z,1014.76
2018-02-20T07:40:05.071Z,1014.80
2018-02-20T07:41:05.016Z,1014.78
2018-02-20T07:42:04.963Z,1014.80
2018-02-20T07:43:04.911Z,1014.83
2018-02-20T07:44:04.870Z,1014.81
2018-02-20T07:45:04.811Z,1014.80
2018-02-20T07:46:04.757Z,1014.76
2018-02-20T07:47:04.708Z,1014.76
2018-02-20T07:48:04.657Z,1014.77
2018-02-20T07:49:04.606Z,1014.77
2018-02-20T07:50:04.560Z,1014.75
2018-02-20T07:51:04.508Z,1014.74
2018-02-20T07:52:04.457Z,1014.75
2018-02-20T07:53:04.404Z,1014.73
2018-02-20T07:54:04.355Z,1014.77
2018-02-20T07:55:04.302Z,1014.77
2018-02-20T07:56:04.250Z,1014.77
2018-02-20T07:57:04.203Z,1014.80
2018-02-20T07:58:04.148Z,1014.79
2018-02-20T07:59:04.099Z,1014.75
2018-02-20T08:00:04.048Z,1014.76
2018-02-20T08:01:03.999Z,1014.77
2018-02-20T08:02:03.946Z,1014.80
2018-02-20T08:03:03.896Z,1014.78
2018-02-20T08:04:03.848Z,1014.76
2018-02-20T08:05:03.801Z,1014.75
2018-02-20T08:06:03.745Z,1014.78
2018-02-20T08:07:03.699Z,1014.78
2018-02-20T08:08:03.653Z,1014.78
2018-02-20T08:09:03.594Z,1014.74
2018-02-20T08:10:03.559Z,1014.77
2018-02-20T08:11:03.496Z,1014.77
2018-02-20T08:12:03.452Z,1014.81
2018-02-20T08:13:03.399Z,1014.76
2018-02-20T08:14:03.344Z,1014.82
2018-02-20T08:15:03.295Z,1014.79
2018-02-20T08:16:03.241Z,1014.78
2018-02-20T08:17:03.194Z,1014.86
2018-02-20T08:18:03.144Z,1014.81
2018-02-20T08:19:03.092Z,1014.79
2018-02-20T08:20:03.053Z,1014.83
2018-02-20T08:21:02.991Z,1014.84
2018-02-20T08:22:02.945Z,1014.82
2018-02-20T08:23:02.893Z,1014.84
2018-02-20T08:24:02.844Z,1014.82
2018-02-20T08:25:02.796Z,1014.82
2018-02-20T08:26:02.742Z,1014.84
2018-02-20T08:27:02.696Z,1014.80
2018-02-20T08:28:02.653Z,1014.79
2018-02-20T08:29:02.603Z,1014.76
2018-02-20T08:30:02.546Z,1014.75
2018-02-20T08:31:02.500Z,1014.75
2018-02-20T08:32:02.450Z,1014.80
2018-02-20T08:33:02.398Z,1014.79
2018-02-20T08:34:02.353Z,1014.78
2018-02-20T08:35:02.305Z,1014.76
2018-02-20T08:36:02.258Z,1014.74
2018-02-20T08:37:02.205Z,1014.72
2018-02-20T08:38:02.158Z,1014.71
2018-02-20T08:39:02.108Z,1014.72
2018-02-20T08:40:02.067Z,1014.76
2018-02-20T08:41:02.021Z,1014.72
2018-02-20T08:42:01.967Z,1014.76
2018-02-20T08:43:01.916Z,1014.73
2018-02-20T08:44:01.869Z,1014.74
2018-02-20T08:45:01.821Z,1014.72
2018-02-20T08:46:01.778Z,1014.68
2018-02-20T08:47:01.726Z,1014.67
2018-02-20T08:48:01.678Z,1014.68
2018-02-20T08:49:01.635Z,1014.69
2018-02-20T08:50:01.583Z,1014.69
2018-02-20T08:51:01.540Z,1014.73
2018-02-20T08:52:01.489Z,1014.72
2018-02-20T08:53:01.442Z,1014.74
2018-02-20T08:54:01.397Z,1014.63
2018-02-20T08:55:01.347Z,1014.67
2018-02-20T08:56:01.306Z,1014.65
2018-02-20T08:57:01.258Z,1014.68
2018-02-20T08:58:01.213Z,1014.70
2018-02-20T08:59:01.172Z,1014.67
2018-02-20T09:00:01.122Z,1014.62
2018-02-20T09:01:01.072Z,1014.62
2018-02-20T09:02:01.022Z,1014.65
2018-02-20T09:03:00.978Z,1014.64
2018-02-20T09:04:00.930Z,1014.67
2018-02-20T09:05:00.891Z,1014.67
2018-02-20T09:06:00.837Z,1014.65
2018-02-20T09:07:00.793Z,1014.66
2018-02-20T09:08:00.750Z,1014.69
2018-02-20T09:09:00.704Z,1014.68
2018-02-20T09:10:00.653Z,1014.69
2018-02-20T09:11:00.609Z,1014.67
2018-02-20T09:12:00.565Z,1014.62
2018-02-20T09:13:00.519Z,1014.67
2018-02-20T09:14:00.473Z,1014.66
2018-02-20T09:15:00.427Z,1014.69
2018-02-20T09:16:00.386Z,1014.67
2018-02-20T09:17:00.335Z,1014.70
2018-02-20T09:18:00.292Z,1014.72
2018-02-20T09:19:00.245Z,1014.67
2018-02-20T09:20:00.205Z,1014.69
2018-02-20T09:21:00.155Z,1014.72
2018-02-20T09:22:00.113Z,1014.74
2018-02-20T09:23:00.063Z,1014.71
2018-02-20T09:24:00.024Z,1014.75
2018-02-20T09:24:59.981Z,1014.75
2018-02-20T09:25:59.928Z,1014.77
2018-02-20T09:26:59.886Z,1014.74
2018-02-20T09:27:59.838Z,1014.75
2018-02-20T09:28:59.796Z,1014.74
2018-02-20T09:29:59.751Z,1014.76
2018-02-20T09:30:59.705Z,1014.77
2018-02-20T09:31:59.660Z,1014.80
2018-02-20T09:32:59.614Z,1014.77
2018-02-20T09:33:59.567Z,1014.74
2018-02-20T09:34:59.525Z,1014.77
2018-02-20T09:35:59.481Z,1014.76
2018-02-20T09:36:59.436Z,1014.73
2018-02-20T09:37:59.401Z,1014.70
2018-02-20T09:38:59.348Z,1014.71
2018-02-20T09:39:59.307Z,1014.70
2018-02-20T09:40:59.256Z,1014.75
2018-02-20T09:41:59.216Z,1014.74
2018-02-20T09:42:59.166Z,1014.74
2018-02-20T09:43:59.122Z,1014.77
2018-02-20T09:44:59.081Z,1014.76
2018-02-20T09:45:59.042Z,1014.74
2018-02-20T09:46:58.988Z,1014.73
2018-02-20T09:47:58.949Z,1014.75
2018-02-20T09:48:58.901Z,1014.77
2018-02-20T09:49:58.858Z,1014.76
2018-02-20T09:50:58.811Z,1014.80
2018-02-20T09:51:58.768Z,1014.80
2018-02-20T09:52:58.720Z,1014.78
2018-02-20T09:53:58.681Z,1014.79
2018-02-20T09:54:58.632Z,1014.81
2018-02-20T09:55:58.585Z,1014.78
2018-02-20T09:56:58.538Z,1014.75
2018-02-20T09:57:58.496Z,1014.73
2018-02-20T09:58:58.445Z,1014.73
2018-02-20T09:59:58.404Z,1014.73
2018-02-20T10:00:58.357Z,1014.69
2018-02-20T10:01:58.313Z,1014.73
2018-02-20T10:02:58.266Z,1014.74
2018-02-20T10:03:58.218Z,1014.77
2018-02-20T10:04:58.174Z,1014.74
2018-02-20T10:05:58.131Z,1014.76
2018-02-20T10:06:58.092Z,1014.77
2018-02-20T10:07:58.077Z,1014.77
2018-02-20T10:08:58.000Z,1014.77
2018-02-20T10:09:57.950Z,1014.85
2018-02-20T10:10:57.906Z,1014.79
2018-02-20T10:11:57.856Z,1014.83
2018-02-20T10:12:57.807Z,1014.87
2018-02-20T10:13:57.762Z,1014.87
2018-02-20T10:14:57.715Z,1014.87
2018-02-20T10:15:57.672Z,1014.87
2018-02-20T10:16:57.623Z,1014.88
2018-02-20T10:17:57.582Z,1014.90
2018-02-20T10:18:57.533Z,1014.93
2018-02-20T10:19:57.488Z,1014.96
2018-02-20T10:20:57.441Z,1014.99
2018-02-20T10:21:57.396Z,1014.98
2018-02-20T10:22:57.356Z,1015.02
2018-02-20T10:23:57.309Z,1015.06
2018-02-20T10:24:57.262Z,1015.06
2018-02-20T10:25:57.209Z,1015.07
2018-02-20T10:26:57.168Z,1015.07
2018-02-20T10:27:57.120Z,1015.09
2018-02-20T10:28:57.072Z,1015.07
2018-02-20T10:29:57.028Z,1015.13
2018-02-20T10:30:56.985Z,1015.11
2018-02-20T10:31:56.935Z,1015.15
2018-02-20T10:32:56.891Z,1015.12
2018-02-20T10:33:56.849Z,1015.18
2018-02-20T10:34:56.797Z,1015.22
2018-02-20T10:35:56.751Z,1015.20
2018-02-20T10:36:56.708Z,1015.22
2018-02-20T10:37:56.662Z,1015.23
2018-02-20T10:38:56.614Z,1015.21
2018-02-20T10:39:56.569Z,1015.17
2018-02-20T10:40:56.527Z,1015.15
2018-02-20T10:41:56.478Z,1015.21
2018-02-20T10:42:56.442Z,1015.12
2018-02-20T10:43:56.386Z,1015.12
2018-02-20T10:44:56.347Z,1015.13
2018-02-20T10:45:56.296Z,1015.17
2018-02-20T10:46:56.247Z,1015.20
2018-02-20T10:47:56.204Z,1015.16
2018-02-20T10:48:56.161Z,1015.16
2018-02-20T10:49:56.115Z,1015.12
2018-02-20T10:50:56.067Z,1015.17
2018-02-20T10:51:56.022Z,1015.16
2018-02-20T10:52:55.988Z,1015.17
2018-02-20T10:53:55.927Z,1015.21
2018-02-20T10:54:55.886Z,1015.17
2018-02-20T10:55:55.841Z,1015.21
2018-02-20T10:56:55.799Z,1015.17
2018-02-20T10:57:55.745Z,1015.19
2018-02-20T10:58:55.709Z,1015.21
2018-02-20T10:59:55.662Z,1015.17
2018-02-20T11:00:55.613Z,1015.18
2018-02-20T11:01:55.567Z,1015.20
2018-02-20T11:02:55.518Z,1015.16
2018-02-20T11:03:55.470Z,1015.19
2018-02-20T11:04:55.430Z,1015.19
2018-02-20T11:05:55.380Z,1015.20
2018-02-20T11:06:55.333Z,1015.17
2018-02-20T11:07:55.287Z,1015.17
2018-02-20T11:08:55.242Z,1015.15
2018-02-20T11:09:55.199Z,1015.11
2018-02-20T11:10:55.156Z,1015.13
2018-02-20T11:11:55.107Z,1015.11
2018-02-20T11:12:55.064Z,1015.15
2018-02-20T11:13:55.014Z,1015.11
2018-02-20T11:14:54.974Z,1015.12
2018-02-20T11:15:54.921Z,1015.10
2018-02-20T11:16:54.878Z,1015.14
2018-02-20T11:17:54.829Z,1015.14
2018-02-20T11:18:54.784Z,1015.16
2018-02-20T11:19:54.739Z,1015.16
2018-02-20T11:20:54.693Z,1015.15
2018-02-20T11:21:54.646Z,1015.16
2018-02-20T11:22:54.605Z,1015.17
2018-02-20T11:23:54.554Z,1015.15
2018-02-20T11:24:54.509Z,1015.18
2018-02-20T11:25:54.464Z,1015.10
2018-02-20T11:26:54.422Z,1015.11
2018-02-20T11:27:54.371Z,1015.09
2018-02-20T11:28:54.326Z,1015.10
2018-02-20T11:29:54.278Z,1015.10
2018-02-20T11:30:54.262Z,1015.10
2018-02-20T11:31:54.188Z,1015.04
2018-02-20T11:32:54.141Z,1015.00
2018-02-20T11:33:54.100Z,1015.01
2018-02-20T11:34:54.052Z,1015.01
2018-02-20T11:35:54.005Z,1014.98
2018-02-20T11:36:53.962Z,1014.96
2018-02-20T11:37:53.916Z,1014.97
2018-02-20T11:38:53.870Z,1014.92
2018-02-20T11:39:53.821Z,1014.92
2018-02-20T11:40:53.775Z,1014.93
2018-02-20T11:41:53.729Z,1014.94
2018-02-20T11:42:53.682Z,1014.96
2018-02-20T11:43:53.637Z,1014.94
2018-02-20T11:44:53.597Z,1014.86
2018-02-20T11:45:53.548Z,1014.90
2018-02-20T11:46:53.502Z,1014.91
2018-02-20T11:47:53.454Z,1014.91
2018-02-20T11:48:53.411Z,1014.92
2018-02-20T11:49:53.366Z,1014.92
2018-02-20T11:50:53.320Z,1014.94
2018-02-20T11:51:53.270Z,1014.93
2018-02-20T11:52:53.225Z,1014.91
2018-02-20T11:53:53.179Z,1014.86
2018-02-20T11:54:53.133Z,1014.85
2018-02-20T11:55:53.106Z,1014.84
2018-02-20T11:56:53.042Z,1014.83
2018-02-20T11:57:53.003Z,1014.82
2018-02-20T11:58:52.953Z,1014.78
2018-02-20T11:59:52.908Z,1014.79
2018-02-20T12:00:52.863Z,1014.81
2018-02-20T12:01:52.814Z,1014.75
2018-02-20T12:02:52.774Z,1014.82
2018-02-20T12:03:52.726Z,1014.79
2018-02-20T12:04:52.680Z,1014.77
2018-02-20T12:05:52.634Z,1014.77